sensor_id;sensor_type;location;lat;lon;timestamp;P1;durP1;ratioP1;P2;durP2;ratioP2
36221;SDS011;22266;52.340;4.962;2023-03-24T00:01:42;5.75;;;5.75;;
36221;SDS011;22266;52.340;4.962;2023-03-24T00:04:09;5.25;;;4.25;;
36221;SDS011;22266;52.340;4.962;2023-03-24T00:06:35;8.75;;;8.00;;
36221;SDS011;22266;52.340;4.962;2023-03-24T00:09:02;11.00;;;7.00;;
36221;SDS011;22266;52.340;4.962;2023-03-24T00:11:29;11.00;;;7.00;;
36221;SDS011;22266;52.340;4.962;2023-03-24T00:14:00;4.50;;;4.00;;
36221;SDS011;22266;52.340;4.962;2023-03-24T00:16:27;6.00;;;6.00;;
36221;SDS011;22266;52.340;4.962;2023-03-24T00:18:54;5.75;;;5.50;;
36221;SDS011;22266;52.340;4.962;2023-03-24T00:21:24;5.50;;;5.50;;
36221;SDS011;22266;52.340;4.962;2023-03-24T00:23:51;9.75;;;5.25;;
36221;SDS011;22266;52.340;4.962;2023-03-24T00:26:24;7.50;;;6.00;;
36221;SDS011;22266;52.340;4.962;2023-03-24T00:28:51;7.00;;;5.50;;
36221;SDS011;22266;52.340;4.962;2023-03-24T00:31:19;5.00;;;3.75;;
36221;SDS011;22266;52.340;4.962;2023-03-24T00:33:47;7.00;;;7.00;;
36221;SDS011;22266;52.340;4.962;2023-03-24T00:36:19;8.25;;;6.00;;
36221;SDS011;22266;52.340;4.962;2023-03-24T00:38:48;5.50;;;5.00;;
36221;SDS011;22266;52.340;4.962;2023-03-24T00:41:15;8.75;;;7.25;;
36221;SDS011;22266;52.340;4.962;2023-03-24T00:43:45;6.25;;;6.25;;
36221;SDS011;22266;52.340;4.962;2023-03-24T00:46:13;10.75;;;6.00;;
36221;SDS011;22266;52.340;4.962;2023-03-24T00:48:53;10.50;;;9.75;;
36221;SDS011;22266;52.340;4.962;2023-03-24T00:51:29;8.50;;;6.25;;
36221;SDS011;22266;52.340;4.962;2023-03-24T00:53:56;6.50;;;6.50;;
36221;SDS011;22266;52.340;4.962;2023-03-24T00:56:25;10.00;;;7.00;;
36221;SDS011;22266;52.340;4.962;2023-03-24T00:58:53;8.00;;;8.00;;
36221;SDS011;22266;52.340;4.962;2023-03-24T01:01:23;6.25;;;6.00;;
36221;SDS011;22266;52.340;4.962;2023-03-24T01:03:52;8.00;;;7.50;;
36221;SDS011;22266;52.340;4.962;2023-03-24T01:06:19;8.00;;;8.00;;
36221;SDS011;22266;52.340;4.962;2023-03-24T01:08:48;6.50;;;5.75;;
36221;SDS011;22266;52.340;4.962;2023-03-24T01:11:16;10.00;;;10.00;;
36221;SDS011;22266;52.340;4.962;2023-03-24T01:13:43;7.25;;;7.25;;
36221;SDS011;22266;52.340;4.962;2023-03-24T01:16:09;6.00;;;6.00;;
36221;SDS011;22266;52.340;4.962;2023-03-24T01:18:36;7.00;;;7.00;;
36221;SDS011;22266;52.340;4.962;2023-03-24T01:21:06;7.25;;;6.75;;
36221;SDS011;22266;52.340;4.962;2023-03-24T01:23:34;7.25;;;6.50;;
36221;SDS011;22266;52.340;4.962;2023-03-24T01:26:04;8.50;;;6.00;;
36221;SDS011;22266;52.340;4.962;2023-03-24T01:28:33;9.00;;;8.75;;
36221;SDS011;22266;52.340;4.962;2023-03-24T01:31:06;8.00;;;6.00;;
36221;SDS011;22266;52.340;4.962;2023-03-24T01:33:35;8.25;;;7.50;;
36221;SDS011;22266;52.340;4.962;2023-03-24T01:36:03;5.75;;;5.25;;
36221;SDS011;22266;52.340;4.962;2023-03-24T01:38:31;10.00;;;10.00;;
36221;SDS011;22266;52.340;4.962;2023-03-24T01:40:58;10.25;;;10.25;;
36221;SDS011;22266;52.340;4.962;2023-03-24T01:43:26;9.25;;;9.00;;
36221;SDS011;22266;52.340;4.962;2023-03-24T01:53:55;10.50;;;10.00;;
36221;SDS011;22266;52.340;4.962;2023-03-24T01:56:27;6.00;;;5.00;;
36221;SDS011;22266;52.340;4.962;2023-03-24T01:59:01;9.50;;;7.00;;
36221;SDS011;22266;52.340;4.962;2023-03-24T02:01:42;7.00;;;7.00;;
36221;SDS011;22266;52.340;4.962;2023-03-24T02:04:46;8.25;;;8.00;;
36221;SDS011;22266;52.340;4.962;2023-03-24T02:07:28;6.00;;;6.00;;
36221;SDS011;22266;52.340;4.962;2023-03-24T02:10:03;6.25;;;6.00;;
36221;SDS011;22266;52.340;4.962;2023-03-24T02:12:34;5.00;;;5.00;;
36221;SDS011;22266;52.340;4.962;2023-03-24T02:15:04;3.50;;;3.50;;
36221;SDS011;22266;52.340;4.962;2023-03-24T02:17:41;2.75;;;2.75;;
36221;SDS011;22266;52.340;4.962;2023-03-24T02:38:10;0.00;;;0.00;;
36221;SDS011;22266;52.340;4.962;2023-03-24T02:47:00;2.75;;;0.75;;
36221;SDS011;22266;52.340;4.962;2023-03-24T02:52:18;0.00;;;0.00;;
36221;SDS011;22266;52.340;4.962;2023-03-24T02:54:55;0.00;;;0.00;;
36221;SDS011;22266;52.340;4.962;2023-03-24T02:57:29;0.00;;;0.00;;
36221;SDS011;22266;52.340;4.962;2023-03-24T03:03:45;2.50;;;1.00;;
36221;SDS011;22266;52.340;4.962;2023-03-24T03:06:18;1.00;;;1.00;;
36221;SDS011;22266;52.340;4.962;2023-03-24T03:08:51;0.50;;;0.50;;
36221;SDS011;22266;52.340;4.962;2023-03-24T03:11:20;0.75;;;0.75;;
36221;SDS011;22266;52.340;4.962;2023-03-24T03:13:49;0.00;;;0.00;;
36221;SDS011;22266;52.340;4.962;2023-03-24T03:16:20;0.00;;;0.00;;
36221;SDS011;22266;52.340;4.962;2023-03-24T03:18:53;0.00;;;0.00;;
36221;SDS011;22266;52.340;4.962;2023-03-24T03:21:24;0.00;;;0.00;;
36221;SDS011;22266;52.340;4.962;2023-03-24T03:24:02;1.75;;;1.75;;
36221;SDS011;22266;52.340;4.962;2023-03-24T03:26:33;0.00;;;0.00;;
36221;SDS011;22266;52.340;4.962;2023-03-24T03:29:06;2.00;;;1.25;;
36221;SDS011;22266;52.340;4.962;2023-03-24T03:31:43;1.00;;;1.00;;
36221;SDS011;22266;52.340;4.962;2023-03-24T03:34:36;0.00;;;0.00;;
36221;SDS011;22266;52.340;4.962;2023-03-24T03:37:07;0.75;;;0.75;;
36221;SDS011;22266;52.340;4.962;2023-03-24T03:42:43;0.50;;;0.50;;
36221;SDS011;22266;52.340;4.962;2023-03-24T03:45:10;1.00;;;1.00;;
36221;SDS011;22266;52.340;4.962;2023-03-24T03:47:38;0.00;;;0.00;;
36221;SDS011;22266;52.340;4.962;2023-03-24T03:50:06;1.75;;;1.00;;
36221;SDS011;22266;52.340;4.962;2023-03-24T03:52:35;0.00;;;0.00;;
36221;SDS011;22266;52.340;4.962;2023-03-24T03:55:04;0.00;;;0.00;;
36221;SDS011;22266;52.340;4.962;2023-03-24T03:57:32;1.00;;;1.00;;
36221;SDS011;22266;52.340;4.962;2023-03-24T04:00:19;1.00;;;0.50;;
36221;SDS011;22266;52.340;4.962;2023-03-24T04:14:38;1.00;;;1.00;;
36221;SDS011;22266;52.340;4.962;2023-03-24T04:20:13;0.75;;;0.75;;
36221;SDS011;22266;52.340;4.962;2023-03-24T04:34:03;0.00;;;0.00;;
36221;SDS011;22266;52.340;4.962;2023-03-24T04:36:49;1.25;;;0.00;;
36221;SDS011;22266;52.340;4.962;2023-03-24T04:39:20;1.00;;;1.00;;
36221;SDS011;22266;52.340;4.962;2023-03-24T04:41:55;2.00;;;1.50;;
36221;SDS011;22266;52.340;4.962;2023-03-24T04:44:25;1.00;;;0.00;;
36221;SDS011;22266;52.340;4.962;2023-03-24T04:47:21;1.00;;;1.00;;
36221;SDS011;22266;52.340;4.962;2023-03-24T04:50:05;1.00;;;0.00;;
36221;SDS011;22266;52.340;4.962;2023-03-24T04:52:40;0.50;;;0.00;;
36221;SDS011;22266;52.340;4.962;2023-03-24T04:58:01;0.75;;;0.50;;
36221;SDS011;22266;52.340;4.962;2023-03-24T05:00:27;0.25;;;0.25;;
36221;SDS011;22266;52.340;4.962;2023-03-24T05:02:54;2.50;;;0.25;;
36221;SDS011;22266;52.340;4.962;2023-03-24T05:05:25;1.00;;;1.00;;
36221;SDS011;22266;52.340;4.962;2023-03-24T05:07:51;5.00;;;1.00;;
36221;SDS011;22266;52.340;4.962;2023-03-24T05:10:18;0.50;;;0.00;;
36221;SDS011;22266;52.340;4.962;2023-03-24T05:12:53;2.00;;;2.00;;
36221;SDS011;22266;52.340;4.962;2023-03-24T05:15:41;1.00;;;1.00;;
36221;SDS011;22266;52.340;4.962;2023-03-24T05:18:23;3.50;;;1.75;;
36221;SDS011;22266;52.340;4.962;2023-03-24T05:20:50;0.75;;;0.75;;
36221;SDS011;22266;52.340;4.962;2023-03-24T05:23:20;3.25;;;1.00;;
36221;SDS011;22266;52.340;4.962;2023-03-24T05:25:48;2.00;;;2.00;;
36221;SDS011;22266;52.340;4.962;2023-03-24T05:28:17;3.75;;;2.00;;
36221;SDS011;22266;52.340;4.962;2023-03-24T05:30:46;4.25;;;2.25;;
36221;SDS011;22266;52.340;4.962;2023-03-24T05:33:33;1.25;;;1.25;;
36221;SDS011;22266;52.340;4.962;2023-03-24T05:36:00;5.25;;;3.75;;
36221;SDS011;22266;52.340;4.962;2023-03-24T05:38:27;1.50;;;1.50;;
36221;SDS011;22266;52.340;4.962;2023-03-24T05:40:56;1.50;;;0.25;;
36221;SDS011;22266;52.340;4.962;2023-03-24T05:43:27;1.00;;;1.00;;
36221;SDS011;22266;52.340;4.962;2023-03-24T05:46:06;7.00;;;2.00;;
36221;SDS011;22266;52.340;4.962;2023-03-24T05:48:33;2.75;;;1.75;;
36221;SDS011;22266;52.340;4.962;2023-03-24T05:51:12;3.25;;;1.00;;
36221;SDS011;22266;52.340;4.962;2023-03-24T05:53:39;9.00;;;2.00;;
36221;SDS011;22266;52.340;4.962;2023-03-24T05:56:27;3.75;;;1.75;;
36221;SDS011;22266;52.340;4.962;2023-03-24T05:59:02;2.75;;;2.75;;
36221;SDS011;22266;52.340;4.962;2023-03-24T06:01:59;1.50;;;1.00;;
36221;SDS011;22266;52.340;4.962;2023-03-24T06:04:48;2.00;;;2.00;;
36221;SDS011;22266;52.340;4.962;2023-03-24T06:07:19;1.00;;;0.50;;
36221;SDS011;22266;52.340;4.962;2023-03-24T06:09:47;3.00;;;1.00;;
36221;SDS011;22266;52.340;4.962;2023-03-24T06:12:15;4.00;;;3.00;;
36221;SDS011;22266;52.340;4.962;2023-03-24T06:14:51;6.75;;;2.00;;
36221;SDS011;22266;52.340;4.962;2023-03-24T06:17:18;5.75;;;1.50;;
36221;SDS011;22266;52.340;4.962;2023-03-24T06:19:49;2.00;;;2.00;;
36221;SDS011;22266;52.340;4.962;2023-03-24T06:22:25;2.00;;;1.00;;
36221;SDS011;22266;52.340;4.962;2023-03-24T06:24:52;1.00;;;1.00;;
36221;SDS011;22266;52.340;4.962;2023-03-24T06:27:22;1.75;;;1.00;;
36221;SDS011;22266;52.340;4.962;2023-03-24T06:29:52;6.50;;;1.75;;
36221;SDS011;22266;52.340;4.962;2023-03-24T06:32:19;4.50;;;2.00;;
36221;SDS011;22266;52.340;4.962;2023-03-24T06:34:46;3.00;;;2.00;;
36221;SDS011;22266;52.340;4.962;2023-03-24T06:37:27;6.25;;;2.50;;
36221;SDS011;22266;52.340;4.962;2023-03-24T06:39:54;3.50;;;1.25;;
36221;SDS011;22266;52.340;4.962;2023-03-24T06:42:24;3.00;;;1.00;;
36221;SDS011;22266;52.340;4.962;2023-03-24T06:44:52;3.50;;;1.25;;
36221;SDS011;22266;52.340;4.962;2023-03-24T06:47:18;2.75;;;1.25;;
36221;SDS011;22266;52.340;4.962;2023-03-24T06:49:45;1.50;;;1.00;;
36221;SDS011;22266;52.340;4.962;2023-03-24T06:52:12;2.00;;;2.00;;
36221;SDS011;22266;52.340;4.962;2023-03-24T06:54:39;4.50;;;3.00;;
36221;SDS011;22266;52.340;4.962;2023-03-24T06:57:08;5.50;;;3.00;;
36221;SDS011;22266;52.340;4.962;2023-03-24T06:59:52;4.00;;;1.75;;
36221;SDS011;22266;52.340;4.962;2023-03-24T07:02:20;3.50;;;1.50;;
36221;SDS011;22266;52.340;4.962;2023-03-24T07:04:49;2.75;;;2.00;;
36221;SDS011;22266;52.340;4.962;2023-03-24T07:07:35;1.25;;;1.25;;
36221;SDS011;22266;52.340;4.962;2023-03-24T07:10:23;2.00;;;2.00;;
36221;SDS011;22266;52.340;4.962;2023-03-24T07:12:50;2.00;;;2.00;;
36221;SDS011;22266;52.340;4.962;2023-03-24T07:15:17;2.00;;;1.75;;
36221;SDS011;22266;52.340;4.962;2023-03-24T07:17:43;2.25;;;1.25;;
36221;SDS011;22266;52.340;4.962;2023-03-24T07:20:16;1.25;;;1.25;;
36221;SDS011;22266;52.340;4.962;2023-03-24T07:22:50;3.00;;;1.00;;
36221;SDS011;22266;52.340;4.962;2023-03-24T07:25:42;0.25;;;0.25;;
36221;SDS011;22266;52.340;4.962;2023-03-24T07:28:23;1.50;;;1.00;;
36221;SDS011;22266;52.340;4.962;2023-03-24T07:30:49;2.75;;;2.75;;
36221;SDS011;22266;52.340;4.962;2023-03-24T07:33:20;1.75;;;1.75;;
36221;SDS011;22266;52.340;4.962;2023-03-24T07:35:52;4.00;;;3.75;;
36221;SDS011;22266;52.340;4.962;2023-03-24T07:38:20;0.00;;;0.00;;
36221;SDS011;22266;52.340;4.962;2023-03-24T07:40:49;2.75;;;2.75;;
36221;SDS011;22266;52.340;4.962;2023-03-24T07:43:16;1.75;;;1.75;;
36221;SDS011;22266;52.340;4.962;2023-03-24T07:46:00;3.00;;;2.50;;
36221;SDS011;22266;52.340;4.962;2023-03-24T07:48:27;3.00;;;1.00;;
36221;SDS011;22266;52.340;4.962;2023-03-24T07:50:54;3.00;;;3.00;;
36221;SDS011;22266;52.340;4.962;2023-03-24T07:53:44;2.00;;;2.00;;
36221;SDS011;22266;52.340;4.962;2023-03-24T07:56:20;7.00;;;5.00;;
36221;SDS011;22266;52.340;4.962;2023-03-24T07:58:52;3.50;;;2.00;;
36221;SDS011;22266;52.340;4.962;2023-03-24T08:01:28;2.25;;;1.75;;
36221;SDS011;22266;52.340;4.962;2023-03-24T08:03:58;2.00;;;1.75;;
36221;SDS011;22266;52.340;4.962;2023-03-24T08:06:43;8.50;;;3.50;;
36221;SDS011;22266;52.340;4.962;2023-03-24T08:09:11;3.00;;;2.00;;
36221;SDS011;22266;52.340;4.962;2023-03-24T08:11:38;3.00;;;3.00;;
36221;SDS011;22266;52.340;4.962;2023-03-24T08:14:04;2.25;;;1.75;;
36221;SDS011;22266;52.340;4.962;2023-03-24T08:16:31;6.25;;;2.25;;
36221;SDS011;22266;52.340;4.962;2023-03-24T08:18:58;4.00;;;2.00;;
36221;SDS011;22266;52.340;4.962;2023-03-24T08:21:24;2.00;;;0.75;;
36221;SDS011;22266;52.340;4.962;2023-03-24T08:23:51;7.25;;;2.50;;
36221;SDS011;22266;52.340;4.962;2023-03-24T08:26:17;4.00;;;3.00;;
36221;SDS011;22266;52.340;4.962;2023-03-24T08:28:44;5.75;;;3.00;;
36221;SDS011;22266;52.340;4.962;2023-03-24T08:31:10;0.25;;;0.25;;
36221;SDS011;22266;52.340;4.962;2023-03-24T08:33:37;4.00;;;3.50;;
36221;SDS011;22266;52.340;4.962;2023-03-24T08:36:04;2.00;;;2.00;;
36221;SDS011;22266;52.340;4.962;2023-03-24T08:38:31;2.75;;;2.75;;
36221;SDS011;22266;52.340;4.962;2023-03-24T08:41:01;5.25;;;2.75;;
36221;SDS011;22266;52.340;4.962;2023-03-24T08:43:32;3.25;;;1.25;;
36221;SDS011;22266;52.340;4.962;2023-03-24T08:46:01;5.50;;;1.50;;
36221;SDS011;22266;52.340;4.962;2023-03-24T08:48:28;3.00;;;2.00;;
36221;SDS011;22266;52.340;4.962;2023-03-24T08:50:55;1.00;;;0.75;;
36221;SDS011;22266;52.340;4.962;2023-03-24T08:53:21;1.00;;;1.00;;
36221;SDS011;22266;52.340;4.962;2023-03-24T08:55:48;1.50;;;1.00;;
36221;SDS011;22266;52.340;4.962;2023-03-24T08:58:16;1.00;;;1.00;;
36221;SDS011;22266;52.340;4.962;2023-03-24T09:00:45;4.00;;;3.00;;
36221;SDS011;22266;52.340;4.962;2023-03-24T09:03:13;3.00;;;1.00;;
36221;SDS011;22266;52.340;4.962;2023-03-24T09:05:44;5.33;;;2.00;;
36221;SDS011;22266;52.340;4.962;2023-03-24T09:08:12;3.33;;;1.67;;
36221;SDS011;22266;52.340;4.962;2023-03-24T09:10:39;1.67;;;1.67;;
36221;SDS011;22266;52.340;4.962;2023-03-24T09:13:07;2.00;;;1.00;;
36221;SDS011;22266;52.340;4.962;2023-03-24T09:15:34;2.00;;;2.00;;
36221;SDS011;22266;52.340;4.962;2023-03-24T09:18:01;2.00;;;1.00;;
36221;SDS011;22266;52.340;4.962;2023-03-24T09:20:28;2.00;;;2.00;;
36221;SDS011;22266;52.340;4.962;2023-03-24T09:22:54;3.33;;;3.33;;
36221;SDS011;22266;52.340;4.962;2023-03-24T09:25:21;6.33;;;1.67;;
36221;SDS011;22266;52.340;4.962;2023-03-24T09:27:48;3.00;;;1.67;;
36221;SDS011;22266;52.340;4.962;2023-03-24T09:30:16;2.33;;;1.00;;
36221;SDS011;22266;52.340;4.962;2023-03-24T09:32:43;0.67;;;0.67;;
36221;SDS011;22266;52.340;4.962;2023-03-24T09:35:11;2.00;;;2.00;;
36221;SDS011;22266;52.340;4.962;2023-03-24T09:37:38;2.67;;;2.00;;
36221;SDS011;22266;52.340;4.962;2023-03-24T09:40:06;1.33;;;1.33;;
36221;SDS011;22266;52.340;4.962;2023-03-24T09:42:39;2.00;;;1.00;;
36221;SDS011;22266;52.340;4.962;2023-03-24T09:45:09;1.33;;;1.00;;
36221;SDS011;22266;52.340;4.962;2023-03-24T09:50:27;3.67;;;1.00;;
36221;SDS011;22266;52.340;4.962;2023-03-24T09:52:59;2.75;;;2.00;;
36221;SDS011;22266;52.340;4.962;2023-03-24T09:55:32;2.00;;;2.00;;
36221;SDS011;22266;52.340;4.962;2023-03-24T09:58:04;4.50;;;1.75;;
36221;SDS011;22266;52.340;4.962;2023-03-24T10:00:36;1.75;;;1.00;;
36221;SDS011;22266;52.340;4.962;2023-03-24T10:05:46;2.00;;;1.50;;
36221;SDS011;22266;52.340;4.962;2023-03-24T10:08:23;2.00;;;2.00;;
36221;SDS011;22266;52.340;4.962;2023-03-24T10:11:01;2.25;;;1.25;;
36221;SDS011;22266;52.340;4.962;2023-03-24T10:30:27;2.33;;;2.33;;
36221;SDS011;22266;52.340;4.962;2023-03-24T10:32:57;0.67;;;0.67;;
36221;SDS011;22266;52.340;4.962;2023-03-24T10:35:25;2.33;;;1.67;;
36221;SDS011;22266;52.340;4.962;2023-03-24T10:37:55;1.00;;;1.00;;
36221;SDS011;22266;52.340;4.962;2023-03-24T10:40:25;0.33;;;0.00;;
36221;SDS011;22266;52.340;4.962;2023-03-24T10:42:59;1.00;;;1.00;;
36221;SDS011;22266;52.340;4.962;2023-03-24T10:45:35;4.33;;;1.00;;
36221;SDS011;22266;52.340;4.962;2023-03-24T10:48:05;5.00;;;0.00;;
36221;SDS011;22266;52.340;4.962;2023-03-24T10:50:34;0.67;;;0.67;;
36221;SDS011;22266;52.340;4.962;2023-03-24T10:53:08;1.00;;;1.00;;
36221;SDS011;22266;52.340;4.962;2023-03-24T10:55:43;1.00;;;1.00;;
36221;SDS011;22266;52.340;4.962;2023-03-24T10:58:15;1.00;;;1.00;;
36221;SDS011;22266;52.340;4.962;2023-03-24T11:00:46;1.33;;;0.00;;
36221;SDS011;22266;52.340;4.962;2023-03-24T11:03:16;1.00;;;1.00;;
36221;SDS011;22266;52.340;4.962;2023-03-24T11:05:56;2.00;;;1.00;;
36221;SDS011;22266;52.340;4.962;2023-03-24T11:10:56;0.00;;;0.00;;
36221;SDS011;22266;52.340;4.962;2023-03-24T11:21:27;1.67;;;1.67;;
36221;SDS011;22266;52.340;4.962;2023-03-24T11:23:56;1.00;;;1.00;;
36221;SDS011;22266;52.340;4.962;2023-03-24T11:26:28;1.33;;;1.33;;
36221;SDS011;22266;52.340;4.962;2023-03-24T11:29:00;0.67;;;0.00;;
36221;SDS011;22266;52.340;4.962;2023-03-24T11:31:33;0.00;;;0.00;;
36221;SDS011;22266;52.340;4.962;2023-03-24T11:34:07;2.00;;;1.00;;
36221;SDS011;22266;52.340;4.962;2023-03-24T11:36:46;0.67;;;0.67;;
36221;SDS011;22266;52.340;4.962;2023-03-24T11:39:28;2.00;;;2.00;;
36221;SDS011;22266;52.340;4.962;2023-03-24T11:47:09;2.33;;;1.33;;
36221;SDS011;22266;52.340;4.962;2023-03-24T11:49:56;3.00;;;2.00;;
36221;SDS011;22266;52.340;4.962;2023-03-24T11:52:52;1.00;;;1.00;;
36221;SDS011;22266;52.340;4.962;2023-03-24T11:55:43;3.33;;;1.67;;
36221;SDS011;22266;52.340;4.962;2023-03-24T11:58:25;0.00;;;0.00;;
36221;SDS011;22266;52.340;4.962;2023-03-24T12:00:57;1.00;;;1.00;;
36221;SDS011;22266;52.340;4.962;2023-03-24T12:06:18;1.33;;;1.33;;
36221;SDS011;22266;52.340;4.962;2023-03-24T12:08:59;0.00;;;0.00;;
36221;SDS011;22266;52.340;4.962;2023-03-24T12:14:10;1.00;;;0.00;;
36221;SDS011;22266;52.340;4.962;2023-03-24T12:19:33;2.00;;;1.00;;
36221;SDS011;22266;52.340;4.962;2023-03-24T12:25:22;1.33;;;1.00;;
36221;SDS011;22266;52.340;4.962;2023-03-24T12:36:27;0.00;;;0.00;;
36221;SDS011;22266;52.340;4.962;2023-03-24T12:39:25;1.00;;;0.00;;
36221;SDS011;22266;52.340;4.962;2023-03-24T12:42:10;1.67;;;1.00;;
36221;SDS011;22266;52.340;4.962;2023-03-24T12:55:39;1.00;;;1.00;;
36221;SDS011;22266;52.340;4.962;2023-03-24T12:58:17;0.00;;;0.00;;
36221;SDS011;22266;52.340;4.962;2023-03-24T13:00:55;0.00;;;0.00;;
36221;SDS011;22266;52.340;4.962;2023-03-24T13:03:32;1.00;;;0.67;;
36221;SDS011;22266;52.340;4.962;2023-03-24T13:06:10;0.00;;;0.00;;
36221;SDS011;22266;52.340;4.962;2023-03-24T13:08:57;0.00;;;0.00;;
36221;SDS011;22266;52.340;4.962;2023-03-24T13:11:39;2.00;;;1.00;;
36221;SDS011;22266;52.340;4.962;2023-03-24T13:14:14;1.00;;;1.00;;
36221;SDS011;22266;52.340;4.962;2023-03-24T13:16:46;1.00;;;1.00;;
36221;SDS011;22266;52.340;4.962;2023-03-24T13:19:20;2.00;;;1.00;;
36221;SDS011;22266;52.340;4.962;2023-03-24T13:21:49;2.00;;;1.00;;
36221;SDS011;22266;52.340;4.962;2023-03-24T13:24:20;2.00;;;1.00;;
36221;SDS011;22266;52.340;4.962;2023-03-24T13:34:48;1.00;;;0.00;;
36221;SDS011;22266;52.340;4.962;2023-03-24T13:37:22;5.00;;;2.67;;
36221;SDS011;22266;52.340;4.962;2023-03-24T13:39:55;1.00;;;0.33;;
36221;SDS011;22266;52.340;4.962;2023-03-24T13:42:27;2.67;;;1.67;;
36221;SDS011;22266;52.340;4.962;2023-03-24T13:45:03;4.00;;;1.67;;
36221;SDS011;22266;52.340;4.962;2023-03-24T13:53:38;0.33;;;0.00;;
36221;SDS011;22266;52.340;4.962;2023-03-24T13:56:08;0.00;;;0.00;;
36221;SDS011;22266;52.340;4.962;2023-03-24T13:58:45;0.67;;;0.67;;
36221;SDS011;22266;52.340;4.962;2023-03-24T14:01:17;2.00;;;0.00;;
36221;SDS011;22266;52.340;4.962;2023-03-24T14:06:45;0.00;;;0.00;;
36221;SDS011;22266;52.340;4.962;2023-03-24T14:09:26;0.33;;;0.33;;
36221;SDS011;22266;52.340;4.962;2023-03-24T14:14:29;0.00;;;0.00;;
36221;SDS011;22266;52.340;4.962;2023-03-24T14:17:15;1.00;;;1.00;;
36221;SDS011;22266;52.340;4.962;2023-03-24T14:19:42;1.00;;;0.00;;
36221;SDS011;22266;52.340;4.962;2023-03-24T14:22:33;1.00;;;1.00;;
36221;SDS011;22266;52.340;4.962;2023-03-24T14:25:05;0.00;;;0.00;;
36221;SDS011;22266;52.340;4.962;2023-03-24T14:27:51;0.00;;;0.00;;
36221;SDS011;22266;52.340;4.962;2023-03-24T14:30:24;1.00;;;0.67;;
36221;SDS011;22266;52.340;4.962;2023-03-24T14:33:03;0.00;;;0.00;;
36221;SDS011;22266;52.340;4.962;2023-03-24T14:35:40;0.33;;;0.33;;
36221;SDS011;22266;52.340;4.962;2023-03-24T14:40:41;0.00;;;0.00;;
36221;SDS011;22266;52.340;4.962;2023-03-24T14:45:53;1.00;;;0.00;;
36221;SDS011;22266;52.340;4.962;2023-03-24T14:50:51;0.00;;;0.00;;
36221;SDS011;22266;52.340;4.962;2023-03-24T14:53:20;0.00;;;0.00;;
36221;SDS011;22266;52.340;4.962;2023-03-24T14:55:48;0.00;;;0.00;;
36221;SDS011;22266;52.340;4.962;2023-03-24T14:58:23;0.00;;;0.00;;
36221;SDS011;22266;52.340;4.962;2023-03-24T15:00:56;0.00;;;0.00;;
36221;SDS011;22266;52.340;4.962;2023-03-24T15:06:25;1.00;;;1.00;;
36221;SDS011;22266;52.340;4.962;2023-03-24T15:08:53;2.67;;;0.00;;
36221;SDS011;22266;52.340;4.962;2023-03-24T15:11:30;0.00;;;0.00;;
36221;SDS011;22266;52.340;4.962;2023-03-24T15:13:59;1.67;;;0.00;;
36221;SDS011;22266;52.340;4.962;2023-03-24T15:16:30;0.33;;;0.33;;
36221;SDS011;22266;52.340;4.962;2023-03-24T15:18:59;1.33;;;0.00;;
36221;SDS011;22266;52.340;4.962;2023-03-24T15:21:35;1.67;;;1.00;;
36221;SDS011;22266;52.340;4.962;2023-03-24T15:26:48;1.00;;;0.00;;
36221;SDS011;22266;52.340;4.962;2023-03-24T15:29:17;3.00;;;1.00;;
36221;SDS011;22266;52.340;4.962;2023-03-24T15:31:44;1.00;;;0.67;;
36221;SDS011;22266;52.340;4.962;2023-03-24T15:34:29;0.33;;;0.00;;
36221;SDS011;22266;52.340;4.962;2023-03-24T15:37:00;0.00;;;0.00;;
36221;SDS011;22266;52.340;4.962;2023-03-24T15:39:32;1.00;;;1.00;;
36221;SDS011;22266;52.340;4.962;2023-03-24T15:42:04;1.67;;;1.00;;
36221;SDS011;22266;52.340;4.962;2023-03-24T15:44:39;1.00;;;1.00;;
36221;SDS011;22266;52.340;4.962;2023-03-24T15:47:13;1.00;;;0.00;;
36221;SDS011;22266;52.340;4.962;2023-03-24T15:49:52;1.00;;;0.33;;
36221;SDS011;22266;52.340;4.962;2023-03-24T15:54:51;0.00;;;0.00;;
36221;SDS011;22266;52.340;4.962;2023-03-24T15:57:20;0.00;;;0.00;;
36221;SDS011;22266;52.340;4.962;2023-03-24T15:59:49;0.00;;;0.00;;
36221;SDS011;22266;52.340;4.962;2023-03-24T16:02:22;1.00;;;1.00;;
36221;SDS011;22266;52.340;4.962;2023-03-24T16:04:50;0.67;;;0.00;;
36221;SDS011;22266;52.340;4.962;2023-03-24T16:07:35;3.00;;;1.00;;
36221;SDS011;22266;52.340;4.962;2023-03-24T16:10:18;1.00;;;0.33;;
36221;SDS011;22266;52.340;4.962;2023-03-24T16:12:51;2.00;;;1.00;;
36221;SDS011;22266;52.340;4.962;2023-03-24T16:15:18;0.67;;;0.00;;
36221;SDS011;22266;52.340;4.962;2023-03-24T16:17:45;0.00;;;0.00;;
36221;SDS011;22266;52.340;4.962;2023-03-24T16:20:16;1.00;;;0.00;;
36221;SDS011;22266;52.340;4.962;2023-03-24T16:22:46;0.00;;;0.00;;
36221;SDS011;22266;52.340;4.962;2023-03-24T16:25:12;0.00;;;0.00;;
36221;SDS011;22266;52.340;4.962;2023-03-24T16:27:39;1.33;;;1.33;;
36221;SDS011;22266;52.340;4.962;2023-03-24T16:30:16;0.00;;;0.00;;
36221;SDS011;22266;52.340;4.962;2023-03-24T16:32:46;0.00;;;0.00;;
36221;SDS011;22266;52.340;4.962;2023-03-24T16:35:13;0.33;;;0.33;;
36221;SDS011;22266;52.340;4.962;2023-03-24T16:37:39;0.00;;;0.00;;
36221;SDS011;22266;52.340;4.962;2023-03-24T16:40:18;1.00;;;0.00;;
36221;SDS011;22266;52.340;4.962;2023-03-24T16:42:47;0.00;;;0.00;;
36221;SDS011;22266;52.340;4.962;2023-03-24T16:45:13;0.50;;;0.00;;
36221;SDS011;22266;52.340;4.962;2023-03-24T16:47:40;0.00;;;0.00;;
36221;SDS011;22266;52.340;4.962;2023-03-24T16:50:23;1.00;;;1.00;;
36221;SDS011;22266;52.340;4.962;2023-03-24T16:52:54;0.00;;;0.00;;
36221;SDS011;22266;52.340;4.962;2023-03-24T16:55:21;0.75;;;0.75;;
36221;SDS011;22266;52.340;4.962;2023-03-24T16:57:48;1.00;;;1.00;;
36221;SDS011;22266;52.340;4.962;2023-03-24T17:00:14;0.25;;;0.25;;
36221;SDS011;22266;52.340;4.962;2023-03-24T17:02:41;0.50;;;0.00;;
36221;SDS011;22266;52.340;4.962;2023-03-24T17:07:45;1.00;;;1.00;;
36221;SDS011;22266;52.340;4.962;2023-03-24T17:10:12;0.50;;;0.00;;
36221;SDS011;22266;52.340;4.962;2023-03-24T17:12:38;0.00;;;0.00;;
36221;SDS011;22266;52.340;4.962;2023-03-24T17:15:05;0.75;;;0.00;;
36221;SDS011;22266;52.340;4.962;2023-03-24T17:17:32;0.00;;;0.00;;
36221;SDS011;22266;52.340;4.962;2023-03-24T17:20:00;0.00;;;0.00;;
36221;SDS011;22266;52.340;4.962;2023-03-24T17:22:30;0.75;;;0.75;;
36221;SDS011;22266;52.340;4.962;2023-03-24T17:24:56;2.00;;;1.00;;
36221;SDS011;22266;52.340;4.962;2023-03-24T17:27:23;0.00;;;0.00;;
36221;SDS011;22266;52.340;4.962;2023-03-24T17:29:50;1.00;;;0.00;;
36221;SDS011;22266;52.340;4.962;2023-03-24T17:32:16;0.50;;;0.00;;
36221;SDS011;22266;52.340;4.962;2023-03-24T17:34:46;0.00;;;0.00;;
36221;SDS011;22266;52.340;4.962;2023-03-24T17:37:13;0.00;;;0.00;;
36221;SDS011;22266;52.340;4.962;2023-03-24T17:39:39;0.00;;;0.00;;
36221;SDS011;22266;52.340;4.962;2023-03-24T17:42:06;2.00;;;0.00;;
36221;SDS011;22266;52.340;4.962;2023-03-24T17:44:32;2.00;;;0.00;;
36221;SDS011;22266;52.340;4.962;2023-03-24T17:46:59;1.00;;;0.00;;
36221;SDS011;22266;52.340;4.962;2023-03-24T17:49:25;0.75;;;0.00;;
36221;SDS011;22266;52.340;4.962;2023-03-24T17:51:52;1.25;;;0.00;;
36221;SDS011;22266;52.340;4.962;2023-03-24T17:54:18;1.25;;;0.00;;
36221;SDS011;22266;52.340;4.962;2023-03-24T17:56:45;1.00;;;0.75;;
36221;SDS011;22266;52.340;4.962;2023-03-24T17:59:12;1.00;;;0.00;;
36221;SDS011;22266;52.340;4.962;2023-03-24T18:01:38;1.75;;;0.00;;
36221;SDS011;22266;52.340;4.962;2023-03-24T18:04:05;0.75;;;0.25;;
36221;SDS011;22266;52.340;4.962;2023-03-24T18:06:32;0.00;;;0.00;;
36221;SDS011;22266;52.340;4.962;2023-03-24T18:08:58;1.75;;;0.00;;
36221;SDS011;22266;52.340;4.962;2023-03-24T18:11:25;0.25;;;0.00;;
36221;SDS011;22266;52.340;4.962;2023-03-24T18:13:51;4.00;;;1.00;;